createdAt,value
2023-04-23T00:01:17.770Z,87.90
2023-04-23T00:03:45.636Z,88.40
2023-04-23T00:06:13.738Z,88.30
2023-04-23T00:08:41.469Z,88.90
2023-04-23T00:11:09.225Z,89.50
2023-04-23T00:13:37.153Z,89.70
2023-04-23T00:16:04.971Z,90.00
2023-04-23T00:18:32.454Z,90.20
2023-04-23T00:20:59.867Z,90.20
2023-04-23T00:23:28.485Z,90.20
2023-04-23T00:25:56.000Z,90.10
2023-04-23T00:28:23.292Z,90.10
2023-04-23T00:30:51.126Z,90.20
2023-04-23T00:33:18.472Z,90.30
2023-04-23T00:35:46.023Z,90.60
2023-04-23T00:38:13.303Z,90.80
2023-04-23T00:40:40.936Z,90.70
2023-04-23T00:43:09.729Z,91.40
2023-04-23T00:45:37.478Z,91.30
2023-04-23T00:48:04.973Z,91.90
2023-04-23T00:50:32.335Z,91.80
2023-04-23T00:52:59.841Z,92.00
2023-04-23T00:55:27.712Z,92.10
2023-04-23T00:57:55.099Z,91.90
2023-04-23T01:00:22.486Z,91.70
2023-04-23T01:02:50.609Z,91.70
2023-04-23T01:05:18.227Z,91.90
2023-04-23T01:07:45.641Z,92.20
2023-04-23T01:10:12.953Z,92.40
2023-04-23T01:12:40.587Z,92.70
2023-04-23T01:15:08.823Z,93.10
2023-04-23T01:17:37.094Z,93.20
2023-04-23T01:20:06.494Z,93.30
2023-04-23T01:22:37.651Z,93.50
2023-04-23T01:25:05.739Z,93.50
2023-04-23T01:27:33.241Z,93.90
2023-04-23T01:30:02.292Z,93.80
2023-04-23T01:32:29.741Z,93.60
2023-04-23T01:34:57.062Z,93.80
2023-04-23T01:37:24.409Z,94.20
2023-04-23T01:39:51.909Z,94.30
2023-04-23T01:42:19.614Z,94.20
2023-04-23T01:44:46.937Z,94.50
2023-04-23T01:47:14.273Z,94.60
2023-04-23T01:49:41.661Z,95.10
2023-04-23T01:52:09.015Z,95.00
2023-04-23T01:54:36.333Z,95.30
2023-04-23T01:57:03.860Z,95.70
2023-04-23T01:59:31.268Z,95.80
2023-04-23T02:01:58.608Z,95.90
2023-04-23T02:04:26.133Z,96.10
2023-04-23T02:06:53.640Z,96.30
2023-04-23T02:09:21.273Z,96.60
2023-04-23T02:11:48.700Z,96.80
2023-04-23T02:14:17.523Z,97.30
2023-04-23T02:16:45.506Z,97.90
2023-04-23T02:19:14.097Z,98.10
2023-04-23T02:21:43.223Z,98.90
2023-04-23T02:24:10.944Z,99.90
2023-04-23T02:26:38.296Z,99.90
2023-04-23T02:29:05.808Z,99.90
2023-04-23T02:31:33.166Z,99.90
2023-04-23T02:34:01.074Z,99.90
2023-04-23T02:36:31.012Z,99.90
2023-04-23T02:38:58.339Z,99.90
2023-04-23T02:41:25.733Z,99.90
2023-04-23T02:43:53.108Z,99.90
2023-04-23T02:46:20.517Z,99.90
2023-04-23T02:48:47.794Z,99.90
2023-04-23T02:51:15.108Z,99.90
2023-04-23T02:53:42.441Z,99.90
2023-04-23T02:56:09.830Z,99.90
2023-04-23T02:58:37.416Z,99.90
2023-04-23T03:01:05.384Z,99.90
2023-04-23T03:03:33.223Z,99.90
2023-04-23T03:06:03.080Z,99.90
2023-04-23T03:08:30.501Z,99.90
2023-04-23T03:10:58.002Z,99.90
2023-04-23T03:13:26.014Z,99.90
2023-04-23T03:15:54.170Z,99.90
2023-04-23T03:18:21.530Z,99.90
2023-04-23T03:20:52.358Z,99.90
2023-04-23T03:23:19.720Z,99.90
2023-04-23T03:25:48.157Z,99.90
2023-04-23T03:28:15.517Z,99.90
2023-04-23T03:30:42.995Z,99.90
2023-04-23T03:33:10.531Z,99.90
2023-04-23T03:35:38.102Z,99.90
2023-04-23T03:38:11.072Z,99.90
2023-04-23T03:40:38.574Z,99.90
2023-04-23T03:43:08.332Z,99.90
2023-04-23T03:45:58.490Z,99.90
2023-04-23T03:48:26.979Z,99.90
2023-04-23T03:50:54.388Z,99.90
2023-04-23T03:53:44.928Z,99.90
2023-04-23T03:56:30.847Z,99.90
2023-04-23T03:59:18.426Z,99.90
2023-04-23T04:01:48.721Z,99.90
2023-04-23T04:04:16.317Z,99.90
2023-04-23T04:06:44.010Z,99.90
2023-04-23T04:09:11.318Z,99.90
2023-04-23T04:11:38.613Z,99.90
2023-04-23T04:14:06.116Z,99.90
2023-04-23T04:16:33.514Z,99.90
2023-04-23T04:19:01.562Z,99.90
2023-04-23T04:21:28.968Z,99.90
2023-04-23T04:23:56.415Z,99.90
2023-04-23T04:26:23.739Z,99.90
2023-04-23T04:28:51.511Z,99.90
2023-04-23T04:31:21.953Z,99.90
2023-04-23T04:33:49.391Z,99.90
2023-04-23T04:36:16.668Z,99.90
2023-04-23T04:38:44.041Z,99.90
2023-04-23T04:41:11.497Z,99.90
2023-04-23T04:43:40.007Z,99.90
2023-04-23T04:46:07.751Z,99.90
2023-04-23T04:48:35.091Z,99.90
2023-04-23T04:51:02.400Z,99.90
2023-04-23T04:53:29.691Z,99.90
2023-04-23T04:55:57.005Z,99.90
2023-04-23T04:58:24.345Z,99.90
2023-04-23T05:00:52.181Z,99.90
2023-04-23T05:03:19.894Z,99.90
2023-04-23T05:05:48.630Z,99.90
2023-04-23T05:08:18.821Z,99.90
2023-04-23T05:10:46.654Z,99.90
2023-04-23T05:13:13.931Z,99.90
2023-04-23T05:15:41.300Z,99.90
2023-04-23T05:18:09.810Z,99.90
2023-04-23T05:20:38.044Z,99.90
2023-04-23T05:23:05.385Z,99.90
2023-04-23T05:25:34.509Z,99.90
2023-04-23T05:28:01.887Z,99.90
2023-04-23T05:30:29.325Z,99.90
2023-04-23T05:32:56.711Z,99.90
2023-04-23T05:35:24.014Z,99.90
2023-04-23T05:37:51.442Z,99.90
2023-04-23T05:40:18.836Z,99.90
2023-04-23T05:42:46.132Z,99.90
2023-04-23T05:45:13.448Z,99.90
2023-04-23T05:47:40.831Z,99.90
2023-04-23T05:50:08.488Z,99.90
2023-04-23T05:52:37.445Z,99.90
2023-04-23T05:55:05.592Z,99.90
2023-04-23T05:57:32.947Z,99.90
2023-04-23T06:00:00.476Z,99.90
2023-04-23T06:02:29.375Z,99.90
2023-04-23T06:04:57.040Z,99.90
2023-04-23T06:07:24.536Z,99.90
2023-04-23T06:09:51.849Z,99.90
2023-04-23T06:12:19.172Z,99.90
2023-04-23T06:14:46.486Z,99.90
2023-04-23T06:17:13.901Z,99.90
2023-04-23T06:19:41.866Z,99.90
2023-04-23T06:22:09.193Z,99.90
2023-04-23T06:24:36.561Z,99.90
2023-04-23T06:27:04.086Z,99.90
2023-04-23T06:29:34.863Z,99.90
2023-04-23T06:32:05.012Z,99.90
2023-04-23T06:34:32.356Z,99.90
2023-04-23T06:36:59.683Z,99.90
2023-04-23T06:39:27.038Z,99.90
2023-04-23T06:41:54.410Z,99.90
2023-04-23T06:44:59.177Z,99.90
2023-04-23T06:47:26.522Z,99.90
2023-04-23T06:49:53.903Z,99.90
2023-04-23T06:52:21.210Z,99.90
2023-04-23T06:54:48.563Z,99.90
2023-04-23T06:57:16.146Z,99.90
2023-04-23T06:59:43.440Z,99.90
2023-04-23T07:02:11.075Z,99.90
2023-04-23T07:04:38.608Z,99.90
2023-04-23T07:07:06.650Z,99.90
2023-04-23T07:09:33.978Z,99.90
2023-04-23T07:12:02.308Z,99.90
2023-04-23T07:14:29.634Z,99.90
2023-04-23T07:16:57.134Z,99.90
2023-04-23T07:19:24.705Z,99.90
2023-04-23T07:21:53.347Z,99.90
2023-04-23T07:24:20.705Z,99.90
2023-04-23T07:26:48.253Z,99.90
2023-04-23T07:29:15.877Z,99.90
2023-04-23T07:31:43.274Z,99.90
2023-04-23T07:34:10.751Z,99.90
2023-04-23T07:36:38.191Z,99.90
2023-04-23T07:39:05.702Z,99.90
2023-04-23T07:41:33.370Z,99.90
2023-04-23T07:44:01.002Z,99.90
2023-04-23T07:46:28.446Z,99.90
2023-04-23T07:48:55.902Z,99.90
2023-04-23T07:51:26.583Z,99.90
2023-04-23T07:53:56.997Z,99.90
2023-04-23T07:56:24.654Z,99.90
2023-04-23T07:58:53.862Z,99.90
2023-04-23T08:01:21.780Z,99.90
2023-04-23T08:03:49.333Z,99.90
2023-04-23T08:06:18.285Z,99.90
2023-04-23T08:08:45.698Z,99.90
2023-04-23T08:11:13.064Z,99.90
2023-04-23T08:13:40.391Z,99.90
2023-04-23T08:16:07.804Z,99.90
2023-04-23T08:18:35.299Z,99.90
2023-04-23T08:21:02.618Z,99.90
2023-04-23T08:23:29.962Z,99.90
2023-04-23T08:25:57.325Z,99.90
2023-04-23T08:28:24.657Z,99.90
2023-04-23T08:30:52.117Z,99.90
2023-04-23T08:33:19.555Z,99.90
2023-04-23T08:35:46.962Z,99.90
2023-04-23T08:38:14.315Z,99.90
2023-04-23T08:40:42.393Z,99.90
2023-04-23T08:43:14.149Z,99.90
2023-04-23T08:45:41.715Z,99.90
2023-04-23T08:48:09.785Z,99.90
2023-04-23T08:50:38.079Z,99.90
2023-04-23T08:53:06.479Z,99.90
2023-04-23T08:55:34.784Z,99.90
2023-04-23T08:58:03.205Z,99.90
2023-04-23T09:00:30.607Z,99.90
2023-04-23T09:02:58.161Z,99.90
2023-04-23T09:05:26.017Z,99.90
2023-04-23T09:07:54.164Z,99.90
2023-04-23T09:10:21.488Z,99.90
2023-04-23T09:12:48.841Z,99.90
2023-04-23T09:15:16.881Z,99.90
2023-04-23T09:17:47.635Z,99.90
2023-04-23T09:20:15.564Z,99.90
2023-04-23T09:22:50.746Z,99.90
2023-04-23T09:25:19.196Z,99.90
2023-04-23T09:27:47.149Z,99.90
2023-04-23T09:30:14.907Z,99.90
2023-04-23T09:32:43.272Z,99.90
2023-04-23T09:35:15.330Z,99.90
2023-04-23T09:37:43.969Z,99.90
2023-04-23T09:40:11.382Z,99.90
2023-04-23T09:42:38.781Z,99.90
2023-04-23T09:45:07.790Z,99.90
2023-04-23T09:47:35.905Z,99.90
2023-04-23T09:50:03.573Z,99.90
2023-04-23T09:52:34.100Z,99.90
2023-04-23T09:55:07.989Z,99.90
2023-04-23T09:57:38.462Z,99.90
2023-04-23T10:00:19.898Z,99.90
2023-04-23T10:02:51.165Z,99.90
2023-04-23T10:05:24.505Z,99.90
2023-04-23T10:07:56.467Z,99.90
2023-04-23T10:10:23.953Z,99.90
2023-04-23T10:12:55.210Z,99.90
2023-04-23T10:15:27.288Z,99.90
2023-04-23T10:17:55.733Z,99.90
2023-04-23T10:20:23.383Z,99.90
2023-04-23T10:22:50.748Z,99.90
2023-04-23T10:25:18.076Z,99.90
2023-04-23T10:27:53.247Z,99.90
2023-04-23T10:30:22.005Z,99.90
2023-04-23T10:32:49.651Z,99.90
2023-04-23T10:35:17.101Z,99.90
2023-04-23T10:37:44.826Z,99.90
2023-04-23T10:40:16.637Z,99.90
2023-04-23T10:42:44.393Z,99.90
2023-04-23T10:45:23.995Z,99.90
2023-04-23T10:47:54.845Z,99.90
2023-04-23T10:50:29.572Z,99.90
2023-04-23T10:52:58.048Z,99.90
2023-04-23T10:55:27.615Z,99.90
2023-04-23T10:58:03.672Z,99.90
2023-04-23T11:00:52.186Z,99.90
2023-04-23T11:03:44.581Z,99.90
2023-04-23T11:06:20.908Z,99.90
2023-04-23T11:08:55.375Z,99.90
2023-04-23T11:11:41.536Z,99.90
2023-04-23T11:14:14.389Z,99.90
2023-04-23T11:16:41.836Z,99.90
2023-04-23T11:19:12.291Z,99.90
2023-04-23T11:22:01.141Z,99.90
2023-04-23T11:24:42.499Z,99.90
2023-04-23T11:27:17.517Z,99.90
2023-04-23T11:29:46.263Z,99.90
2023-04-23T11:32:15.659Z,99.90
2023-04-23T11:34:44.235Z,99.90
2023-04-23T11:37:12.176Z,99.90
2023-04-23T11:39:43.990Z,99.90
2023-04-23T11:42:13.237Z,99.90
2023-04-23T11:44:41.487Z,99.90
2023-04-23T11:47:11.128Z,99.90
2023-04-23T11:49:39.746Z,99.90
2023-04-23T11:52:07.369Z,99.90
2023-04-23T11:54:34.846Z,99.50
2023-04-23T11:57:04.434Z,98.90
2023-04-23T11:59:31.835Z,99.40
2023-04-23T12:01:59.652Z,99.90
2023-04-23T12:04:30.881Z,98.20
2023-04-23T12:06:58.506Z,98.30
2023-04-23T12:09:29.329Z,98.50
2023-04-23T12:11:58.426Z,98.70
2023-04-23T12:14:30.245Z,98.60
2023-04-23T12:16:58.011Z,98.80
2023-04-23T12:19:29.490Z,98.40
2023-04-23T12:22:03.718Z,98.30
2023-04-23T12:24:48.592Z,97.90
2023-04-23T12:27:16.748Z,97.50
2023-04-23T12:29:44.360Z,96.80
2023-04-23T12:32:12.256Z,96.60
2023-04-23T12:34:53.358Z,97.70
2023-04-23T12:37:25.549Z,96.80
2023-04-23T12:39:54.738Z,96.10
2023-04-23T12:42:22.373Z,96.10
2023-04-23T12:44:51.720Z,96.70
2023-04-23T12:47:21.738Z,96.00
2023-04-23T12:49:53.114Z,96.10
2023-04-23T12:52:20.936Z,95.20
2023-04-23T12:54:52.235Z,95.30
2023-04-23T12:57:23.271Z,96.90
2023-04-23T12:59:51.188Z,96.70
2023-04-23T13:02:18.742Z,96.20
2023-04-23T13:04:46.339Z,95.90
2023-04-23T13:07:14.077Z,95.60
2023-04-23T13:09:41.618Z,95.30
2023-04-23T13:12:09.301Z,95.90
2023-04-23T13:14:36.644Z,96.10
2023-04-23T13:17:04.019Z,96.50
2023-04-23T13:19:31.689Z,96.90
2023-04-23T13:21:59.051Z,95.50
2023-04-23T13:24:26.451Z,95.40
2023-04-23T13:26:53.753Z,95.60
2023-04-23T13:29:21.133Z,96.00
2023-04-23T13:31:48.495Z,95.10
2023-04-23T13:34:16.280Z,95.20
2023-04-23T13:36:43.626Z,95.30
2023-04-23T13:39:14.032Z,95.40
2023-04-23T13:41:41.701Z,95.80
2023-04-23T13:44:09.272Z,95.10
2023-04-23T13:46:36.787Z,95.20
2023-04-23T13:49:04.150Z,95.30
2023-04-23T13:51:35.396Z,95.10
2023-04-23T13:54:03.853Z,94.90
2023-04-23T13:56:31.699Z,94.80
2023-04-23T14:01:34.185Z,94.60
2023-04-23T14:04:04.052Z,94.20
2023-04-23T14:06:31.641Z,94.50
2023-04-23T14:08:59.071Z,94.30
2023-04-23T14:11:26.400Z,93.60
2023-04-23T14:13:54.236Z,93.40
2023-04-23T14:16:21.627Z,94.20
2023-04-23T14:18:49.014Z,94.30
2023-04-23T14:21:19.493Z,94.80
2023-04-23T14:24:01.015Z,94.90
2023-04-23T14:29:37.877Z,95.20
2023-04-23T14:32:06.354Z,94.90
2023-04-23T14:34:36.861Z,95.30
2023-04-23T14:37:04.247Z,95.60
2023-04-23T14:39:31.825Z,96.20
2023-04-23T14:41:59.149Z,96.10
2023-04-23T14:44:26.943Z,96.40
2023-04-23T14:46:54.448Z,95.80
2023-04-23T14:49:21.872Z,95.20
2023-04-23T14:51:55.829Z,95.20
2023-04-23T14:54:23.427Z,95.20
2023-04-23T14:56:51.305Z,95.20
2023-04-23T14:59:18.610Z,94.80
2023-04-23T15:01:46.043Z,95.20
2023-04-23T15:04:13.622Z,95.40
2023-04-23T15:06:41.025Z,95.60
2023-04-23T15:09:09.147Z,95.90
2023-04-23T15:11:37.947Z,96.10
2023-04-23T15:14:14.439Z,96.30
2023-04-23T15:16:48.916Z,96.20
2023-04-23T15:19:20.495Z,96.60
2023-04-23T15:21:48.027Z,96.50
2023-04-23T15:24:16.090Z,96.60
2023-04-23T15:26:43.657Z,97.00
2023-04-23T15:29:11.164Z,97.00
2023-04-23T15:31:38.771Z,97.10
2023-04-23T15:34:08.930Z,96.70
2023-04-23T15:36:37.711Z,96.80
2023-04-23T15:39:06.554Z,96.90
2023-04-23T15:44:02.938Z,96.90
2023-04-23T15:46:30.436Z,96.40
2023-04-23T15:48:57.731Z,96.60
2023-04-23T15:51:25.072Z,96.20
2023-04-23T15:53:52.421Z,96.80
2023-04-23T15:56:19.693Z,96.70
2023-04-23T15:58:47.134Z,96.80
2023-04-23T16:01:14.476Z,96.90
2023-04-23T16:03:50.378Z,96.70
2023-04-23T16:06:25.212Z,96.90
2023-04-23T16:08:52.548Z,96.70
2023-04-23T16:11:20.872Z,96.90
2023-04-23T16:13:48.177Z,96.80
2023-04-23T16:16:15.479Z,96.80
2023-04-23T16:18:42.805Z,97.20
2023-04-23T16:21:10.249Z,97.10
2023-04-23T16:23:37.605Z,97.20
2023-04-23T16:26:08.705Z,96.90
2023-04-23T16:28:36.112Z,97.50
2023-04-23T16:31:03.765Z,98.10
2023-04-23T16:33:31.148Z,98.30
2023-04-23T16:35:59.548Z,98.40
2023-04-23T16:38:26.915Z,98.90
2023-04-23T16:40:54.203Z,99.30
2023-04-23T16:43:21.566Z,99.10
2023-04-23T16:45:48.877Z,99.40
2023-04-23T16:48:17.557Z,99.20
2023-04-23T16:50:44.885Z,99.40
2023-04-23T16:53:13.432Z,99.60
2023-04-23T16:55:40.864Z,99.70
2023-04-23T16:58:09.960Z,99.90
2023-04-23T17:00:37.491Z,99.90
2023-04-23T17:03:04.954Z,99.90
2023-04-23T17:05:33.227Z,99.90
2023-04-23T17:08:00.549Z,99.90
2023-04-23T17:10:27.909Z,99.90
2023-04-23T17:12:55.408Z,99.90
2023-04-23T17:15:22.885Z,99.90
2023-04-23T17:17:50.373Z,99.90
2023-04-23T17:20:17.750Z,99.90
2023-04-23T17:22:45.156Z,99.90
2023-04-23T17:25:12.472Z,99.90
2023-04-23T17:27:39.826Z,99.90
2023-04-23T17:30:07.830Z,99.90
2023-04-23T17:32:35.199Z,99.90
2023-04-23T17:35:09.544Z,99.90
2023-04-23T17:37:37.155Z,99.90
2023-04-23T17:40:05.880Z,99.90
2023-04-23T17:42:33.348Z,99.90
2023-04-23T17:45:00.972Z,99.90
2023-04-23T17:47:28.984Z,99.90
2023-04-23T17:49:56.428Z,99.90
2023-04-23T17:52:23.770Z,99.90
2023-04-23T17:54:51.196Z,99.90
2023-04-23T17:57:18.590Z,99.90
2023-04-23T17:59:45.863Z,99.90
2023-04-23T18:02:13.260Z,99.90
2023-04-23T18:04:40.699Z,99.90
2023-04-23T18:07:08.005Z,99.90
2023-04-23T18:09:35.741Z,99.90
2023-04-23T18:12:04.719Z,99.90
2023-04-23T18:14:32.088Z,99.90
2023-04-23T18:16:59.503Z,99.90
2023-04-23T18:19:26.831Z,99.90
2023-04-23T18:21:55.009Z,99.90
2023-04-23T18:24:22.314Z,99.90
2023-04-23T18:26:52.016Z,99.90
2023-04-23T18:29:19.749Z,99.90
2023-04-23T18:31:47.040Z,99.90
2023-04-23T18:34:14.378Z,99.90
2023-04-23T18:36:42.378Z,99.90
2023-04-23T18:39:10.868Z,99.90
2023-04-23T18:41:38.263Z,99.90
2023-04-23T18:44:05.573Z,99.90
2023-04-23T18:46:33.174Z,99.90
2023-04-23T18:49:31.640Z,99.90
2023-04-23T18:51:58.964Z,99.90
2023-04-23T18:54:26.926Z,99.90
2023-04-23T18:56:54.287Z,99.90
2023-04-23T18:59:21.577Z,99.90
2023-04-23T19:01:49.780Z,96.60
2023-04-23T19:04:17.388Z,99.90
2023-04-23T19:06:44.793Z,99.90
2023-04-23T19:09:12.113Z,99.90
2023-04-23T19:11:40.285Z,99.90
2023-04-23T19:14:07.687Z,99.90
2023-04-23T19:16:35.130Z,99.90
2023-04-23T19:19:02.709Z,99.90
2023-04-23T19:21:30.104Z,99.90
2023-04-23T19:23:57.506Z,99.90
2023-04-23T19:26:24.848Z,99.90
2023-04-23T19:28:52.119Z,99.90
2023-04-23T19:31:19.474Z,99.90
2023-04-23T19:33:47.609Z,99.90
2023-04-23T19:36:14.931Z,99.90
2023-04-23T19:38:42.322Z,99.90
2023-04-23T19:41:09.699Z,99.90
2023-04-23T19:43:37.321Z,99.90
2023-04-23T19:46:04.613Z,99.90
2023-04-23T19:48:31.967Z,99.90
2023-04-23T19:50:59.567Z,99.90
2023-04-23T19:53:27.532Z,99.90
2023-04-23T19:55:54.895Z,99.90
2023-04-23T19:58:22.192Z,99.90
2023-04-23T20:00:49.543Z,99.90
2023-04-23T20:03:16.939Z,99.90
2023-04-23T20:05:46.119Z,99.90
2023-04-23T20:08:25.910Z,99.90
2023-04-23T20:10:53.758Z,99.90
2023-04-23T20:13:21.233Z,99.90
2023-04-23T20:15:50.198Z,99.90
2023-04-23T20:18:18.100Z,99.90
2023-04-23T20:20:45.686Z,99.90
2023-04-23T20:23:13.056Z,99.90
2023-04-23T20:28:32.622Z,99.90
2023-04-23T20:30:59.949Z,99.90
2023-04-23T20:33:27.309Z,99.90
2023-04-23T20:35:56.793Z,99.90
2023-04-23T20:38:24.692Z,99.90
2023-04-23T20:40:51.999Z,99.90
2023-04-23T20:43:19.322Z,99.90
2023-04-23T20:45:46.800Z,99.90
2023-04-23T20:48:14.465Z,99.90
2023-04-23T20:50:41.773Z,99.90
2023-04-23T20:53:09.716Z,99.90
2023-04-23T20:55:37.285Z,99.90
2023-04-23T20:58:04.752Z,99.90
2023-04-23T21:00:32.749Z,99.90
2023-04-23T21:03:00.274Z,99.90
2023-04-23T21:05:27.735Z,99.90
2023-04-23T21:07:55.071Z,99.90
2023-04-23T21:10:22.439Z,99.90
2023-04-23T21:12:49.783Z,99.90
2023-04-23T21:15:17.257Z,99.90
2023-04-23T21:17:44.628Z,99.90
2023-04-23T21:20:12.047Z,99.90
2023-04-23T21:22:39.396Z,99.90
2023-04-23T21:25:07.099Z,99.90
2023-04-23T21:27:34.439Z,99.90
2023-04-23T21:30:05.862Z,99.90
2023-04-23T21:32:33.286Z,99.90
2023-04-23T21:35:01.114Z,99.90
2023-04-23T21:37:28.455Z,99.90
2023-04-23T21:39:55.808Z,99.90
2023-04-23T21:42:23.089Z,99.90
2023-04-23T21:44:50.399Z,99.90
2023-04-23T21:47:17.704Z,99.90
2023-04-23T21:49:45.021Z,99.90
2023-04-23T21:52:12.373Z,99.90
2023-04-23T21:54:39.704Z,99.90
2023-04-23T21:57:07.060Z,99.90
2023-04-23T21:59:34.355Z,99.90
2023-04-23T22:02:01.699Z,99.90
2023-04-23T22:04:29.365Z,99.90
2023-04-23T22:07:02.454Z,99.90
2023-04-23T22:09:30.118Z,99.90
2023-04-23T22:14:28.249Z,99.90
2023-04-23T22:16:55.617Z,99.90
2023-04-23T22:19:23.198Z,99.90
2023-04-23T22:21:50.708Z,99.90
2023-04-23T22:24:18.040Z,99.90
2023-04-23T22:26:45.734Z,99.90
2023-04-23T22:29:13.634Z,99.90
2023-04-23T22:31:40.979Z,99.90
2023-04-23T22:34:08.315Z,99.90
2023-04-23T22:36:35.726Z,99.90
2023-04-23T22:39:04.675Z,99.90
2023-04-23T22:41:33.767Z,99.90
2023-04-23T22:44:01.304Z,99.90
2023-04-23T22:46:28.633Z,99.90
2023-04-23T22:48:55.983Z,99.90
2023-04-23T22:51:23.314Z,99.90
2023-04-23T22:53:50.637Z,99.90
2023-04-23T22:56:18.347Z,99.90
2023-04-23T22:58:45.716Z,99.90
2023-04-23T23:01:13.094Z,99.90
2023-04-23T23:03:40.659Z,99.90
2023-04-23T23:06:08.085Z,99.90
2023-04-23T23:08:35.631Z,99.90
2023-04-23T23:11:03.248Z,99.90
2023-04-23T23:13:30.665Z,99.90
2023-04-23T23:16:00.589Z,99.90
2023-04-23T23:18:28.052Z,99.90
2023-04-23T23:20:56.023Z,99.90
2023-04-23T23:23:23.345Z,99.90
2023-04-23T23:25:50.675Z,99.90
2023-04-23T23:28:18.020Z,99.90
2023-04-23T23:30:46.304Z,99.90
2023-04-23T23:33:13.651Z,99.90
2023-04-23T23:35:42.628Z,99.90
2023-04-23T23:38:11.096Z,99.90
2023-04-23T23:40:38.555Z,99.90
2023-04-23T23:43:05.968Z,99.90
2023-04-23T23:45:33.402Z,99.90
2023-04-23T23:48:00.788Z,99.90
2023-04-23T23:50:28.245Z,99.90
2023-04-23T23:52:55.632Z,99.90
2023-04-23T23:55:22.960Z,99.90
2023-04-23T23:57:50.301Z,99.90
